Time;durP1;ratioP1;P1;durP2;ratioP2;P2;SDS_P1;SDS_P2;PMS_P1;PMS_P2;Temp;Humidity;BMP_temperature;BMP_pressure;BME280_temperature;BME280_humidity;BME280_pressure;Samples;Min_cycle;Max_cycle;Signal;HPM_P1;HPM_P2
2022/07/23 00:01:28;;;;;;;;;;;15.00;99.90;;;;;;4983697;28;19960;-74
2022/07/23 00:03:54;;;;;;;;;;;15.00;99.90;;;;;;4991361;28;19925;-74
2022/07/23 00:06:20;;;;;;;;;;;14.90;99.90;;;;;;4998420;28;19932;-74
2022/07/23 00:08:46;;;;;;;;;;;14.90;99.90;;;;;;4997368;28;20008;-74
2022/07/23 00:11:11;;;;;;;;;;;14.80;99.90;;;;;;5004469;28;19925;-74
2022/07/23 00:13:37;;;;;;;;;;;14.80;99.90;;;;;;4985721;28;19930;-74
2022/07/23 00:16:03;;;;;;;;;;;14.80;99.90;;;;;;4995362;28;19921;-74
2022/07/23 00:18:28;;;;;;;;;;;14.70;99.90;;;;;;4998209;28;19921;-74
2022/07/23 00:20:54;;;;;;;;;;;14.70;99.90;;;;;;5000331;28;19921;-74
2022/07/23 00:23:20;;;;;;;;;;;14.60;99.90;;;;;;4998744;28;20416;-74
2022/07/23 00:25:46;;;;;;;;;;;14.60;99.90;;;;;;4998035;28;19941;-72
2022/07/23 00:28:11;;;;;;;;;;;14.60;99.90;;;;;;4993942;28;19921;-74
2022/07/23 00:30:37;;;;;;;;;;;14.60;99.90;;;;;;4982840;28;19921;-74
2022/07/23 00:33:04;;;;;;;;;;;14.50;99.90;;;;;;4994458;28;20013;-73
2022/07/23 00:35:30;;;;;;;;;;;14.50;99.90;;;;;;4998893;28;19944;-73
2022/07/23 00:37:56;;;;;;;;;;;14.40;99.90;;;;;;4998567;28;19984;-73
2022/07/23 00:40:22;;;;;;;;;;;14.40;99.90;;;;;;5001953;28;20363;-73
2022/07/23 00:42:48;;;;;;;;;;;14.30;99.90;;;;;;4997910;28;19928;-73
2022/07/23 00:45:14;;;;;;;;;;;14.30;99.90;;;;;;5002337;28;21349;-73
2022/07/23 00:47:39;;;;;;;;;;;14.30;99.90;;;;;;4996267;28;21315;-73
2022/07/23 00:50:05;;;;;;;;;;;14.30;99.90;;;;;;4994342;28;20303;-73
2022/07/23 00:52:31;;;;;;;;;;;14.20;99.90;;;;;;4992786;28;20053;-73
2022/07/23 00:54:57;;;;;;;;;;;14.20;99.90;;;;;;4994723;28;20433;-73
2022/07/23 00:57:23;;;;;;;;;;;14.20;99.90;;;;;;4998752;28;20406;-74
2022/07/23 00:59:48;;;;;;;;;;;14.20;99.90;;;;;;4994751;28;20013;-74
2022/07/23 01:02:14;;;;;;;;;;;14.10;99.90;;;;;;5006040;28;20435;-73
2022/07/23 01:04:39;;;;;;;;;;;14.10;99.90;;;;;;4999462;28;19922;-74
2022/07/23 01:07:05;;;;;;;;;;;14.10;99.90;;;;;;4997457;28;19926;-73
2022/07/23 01:09:31;;;;;;;;;;;14.00;99.90;;;;;;4999942;28;20451;-73
2022/07/23 01:11:57;;;;;;;;;;;14.00;99.90;;;;;;4994366;28;19960;-73
2022/07/23 01:14:22;;;;;;;;;;;14.00;99.90;;;;;;4995955;28;20368;-73
2022/07/23 01:16:49;;;;;;;;;;;14.00;99.90;;;;;;4998744;28;19921;-73
2022/07/23 01:19:15;;;;;;;;;;;13.90;99.90;;;;;;4992913;28;19987;-73
2022/07/23 01:21:42;;;;;;;;;;;14.00;99.90;;;;;;4985825;28;19929;-73
2022/07/23 01:24:08;;;;;;;;;;;13.90;99.90;;;;;;4996396;28;19929;-73
2022/07/23 01:26:34;;;;;;;;;;;13.90;99.90;;;;;;4992271;28;19921;-73
2022/07/23 01:29:00;;;;;;;;;;;13.90;99.90;;;;;;4994030;28;20381;-73
2022/07/23 01:31:25;;;;;;;;;;;13.80;99.90;;;;;;4996924;28;20409;-74
2022/07/23 01:33:51;;;;;;;;;;;13.80;99.90;;;;;;4990097;28;20582;-72
2022/07/23 01:36:17;;;;;;;;;;;13.80;99.90;;;;;;4995876;28;19929;-73
2022/07/23 01:38:42;;;;;;;;;;;13.80;99.90;;;;;;4992187;28;19922;-73
2022/07/23 01:41:08;;;;;;;;;;;13.80;99.90;;;;;;5002750;28;20284;-73
2022/07/23 01:43:33;;;;;;;;;;;13.70;99.90;;;;;;4999823;28;19926;-72
2022/07/23 01:45:59;;;;;;;;;;;13.70;99.90;;;;;;4992760;28;20433;-74
2022/07/23 01:48:24;;;;;;;;;;;13.70;99.90;;;;;;4997339;28;20016;-73
2022/07/23 01:50:50;;;;;;;;;;;13.60;99.90;;;;;;5001222;28;20385;-74
2022/07/23 01:53:16;;;;;;;;;;;13.60;99.90;;;;;;4980655;28;19926;-74
2022/07/23 01:55:42;;;;;;;;;;;13.60;99.90;;;;;;4999053;28;20677;-73
2022/07/23 01:58:07;;;;;;;;;;;13.60;99.90;;;;;;4994611;28;20376;-73
2022/07/23 02:00:33;;;;;;;;;;;13.60;99.90;;;;;;4979002;28;20428;-74
2022/07/23 02:02:59;;;;;;;;;;;13.60;99.90;;;;;;4992698;28;21240;-73
2022/07/23 02:05:25;;;;;;;;;;;13.50;99.90;;;;;;4984270;28;19976;-73
2022/07/23 02:07:50;;;;;;;;;;;13.50;99.90;;;;;;4997798;28;20049;-73
2022/07/23 02:10:16;;;;;;;;;;;13.40;99.90;;;;;;4983916;28;19921;-74
2022/07/23 02:12:41;;;;;;;;;;;13.40;99.90;;;;;;4991058;28;20450;-73
2022/07/23 02:15:07;;;;;;;;;;;13.50;99.90;;;;;;4995233;28;19922;-73
2022/07/23 02:17:33;;;;;;;;;;;13.40;99.90;;;;;;5000145;28;20393;-73
2022/07/23 02:19:58;;;;;;;;;;;13.40;99.90;;;;;;4993359;28;20979;-72
2022/07/23 02:22:24;;;;;;;;;;;13.30;99.90;;;;;;4998506;28;20269;-73
2022/07/23 02:24:49;;;;;;;;;;;13.30;99.90;;;;;;4992884;28;20312;-74
2022/07/23 02:27:15;;;;;;;;;;;13.30;99.90;;;;;;4992745;28;20027;-74
2022/07/23 02:29:40;;;;;;;;;;;13.30;99.90;;;;;;4996643;28;20064;-74
2022/07/23 02:32:06;;;;;;;;;;;13.30;99.90;;;;;;4986858;28;20896;-73
2022/07/23 02:34:31;;;;;;;;;;;13.30;99.90;;;;;;4988796;28;20422;-73
2022/07/23 02:36:57;;;;;;;;;;;13.20;99.90;;;;;;4995457;28;20277;-73
2022/07/23 02:39:22;;;;;;;;;;;13.20;99.90;;;;;;4993889;28;20308;-73
2022/07/23 02:41:48;;;;;;;;;;;13.20;99.90;;;;;;4995846;28;20295;-73
2022/07/23 02:44:14;;;;;;;;;;;13.10;99.90;;;;;;4991148;28;20620;-73
2022/07/23 02:46:39;;;;;;;;;;;13.00;99.90;;;;;;4991308;28;20348;-73
2022/07/23 02:49:05;;;;;;;;;;;13.00;99.90;;;;;;4997393;28;20304;-73
2022/07/23 02:51:30;;;;;;;;;;;12.90;99.90;;;;;;5000244;28;19925;-73
2022/07/23 02:53:56;;;;;;;;;;;12.90;99.90;;;;;;4987530;28;19922;-73
2022/07/23 02:56:22;;;;;;;;;;;12.90;99.90;;;;;;4990207;28;19925;-73
2022/07/23 02:58:48;;;;;;;;;;;12.90;99.90;;;;;;4991957;28;19921;-73
2022/07/23 03:01:13;;;;;;;;;;;12.90;99.90;;;;;;4991820;28;19928;-73
2022/07/23 03:03:39;;;;;;;;;;;12.90;99.90;;;;;;4992846;28;20399;-73
2022/07/23 03:06:05;;;;;;;;;;;12.90;99.90;;;;;;4989848;28;19929;-73
2022/07/23 03:08:30;;;;;;;;;;;12.90;99.90;;;;;;5008066;28;20011;-74
2022/07/23 03:10:56;;;;;;;;;;;12.80;99.90;;;;;;4987383;28;19976;-74
2022/07/23 03:13:21;;;;;;;;;;;12.80;99.90;;;;;;4993815;28;20010;-74
2022/07/23 03:15:47;;;;;;;;;;;12.70;99.90;;;;;;4993782;28;19953;-74
2022/07/23 03:18:13;;;;;;;;;;;12.70;99.90;;;;;;4988406;28;19930;-73
2022/07/23 03:20:38;;;;;;;;;;;12.60;99.90;;;;;;4970072;28;19922;-74
2022/07/23 03:23:04;;;;;;;;;;;12.60;99.90;;;;;;4990767;28;19921;-74
2022/07/23 03:25:29;;;;;;;;;;;12.50;99.90;;;;;;4989276;28;19928;-74
2022/07/23 03:27:55;;;;;;;;;;;12.50;99.90;;;;;;4985243;28;19930;-74
2022/07/23 03:30:21;;;;;;;;;;;12.30;99.90;;;;;;4976438;28;19936;-74
2022/07/23 03:32:46;;;;;;;;;;;12.30;99.90;;;;;;4989892;28;19937;-74
2022/07/23 03:35:12;;;;;;;;;;;12.30;99.90;;;;;;4987811;28;19976;-74
2022/07/23 03:37:37;;;;;;;;;;;12.30;99.90;;;;;;4996648;28;19921;-74
2022/07/23 03:40:03;;;;;;;;;;;12.30;99.90;;;;;;4991377;28;19930;-74
2022/07/23 03:42:29;;;;;;;;;;;12.30;99.90;;;;;;4989844;28;19932;-74
2022/07/23 03:44:54;;;;;;;;;;;12.30;99.90;;;;;;4985450;28;19963;-74
2022/07/23 03:47:21;;;;;;;;;;;12.40;99.90;;;;;;4994186;28;19933;-74
2022/07/23 03:49:50;;;;;;;;;;;12.40;99.90;;;;;;4988549;28;19922;-74
2022/07/23 03:52:15;;;;;;;;;;;12.40;99.90;;;;;;4993564;28;20790;-74
2022/07/23 03:54:41;;;;;;;;;;;12.40;99.90;;;;;;4991839;28;19921;-74
2022/07/23 03:57:07;;;;;;;;;;;12.40;99.90;;;;;;4992216;28;19952;-74
2022/07/23 03:59:32;;;;;;;;;;;12.20;99.90;;;;;;4979097;28;19925;-74
2022/07/23 04:01:58;;;;;;;;;;;12.20;99.90;;;;;;4994322;28;19926;-74
2022/07/23 04:04:23;;;;;;;;;;;12.10;99.90;;;;;;4995338;28;19976;-74
2022/07/23 04:06:49;;;;;;;;;;;12.00;99.90;;;;;;4987609;28;20408;-74
2022/07/23 04:09:15;;;;;;;;;;;12.00;99.90;;;;;;4988826;28;19972;-74
2022/07/23 04:11:40;;;;;;;;;;;12.00;99.90;;;;;;4979189;28;19937;-74
2022/07/23 04:14:07;;;;;;;;;;;12.10;99.90;;;;;;4991015;28;19937;-74
2022/07/23 04:16:32;;;;;;;;;;;12.10;99.90;;;;;;4992339;28;19925;-74
2022/07/23 04:18:58;;;;;;;;;;;12.10;99.90;;;;;;4992736;28;19976;-74
2022/07/23 04:21:24;;;;;;;;;;;12.20;99.90;;;;;;4989956;28;19968;-74
2022/07/23 04:23:49;;;;;;;;;;;12.10;99.90;;;;;;4998201;28;19922;-74
2022/07/23 04:26:15;;;;;;;;;;;12.20;99.90;;;;;;4997976;28;19929;-74
2022/07/23 04:28:41;;;;;;;;;;;12.20;99.90;;;;;;4994718;28;19921;-74
2022/07/23 04:31:07;;;;;;;;;;;12.30;99.90;;;;;;5001389;28;19925;-74
2022/07/23 04:33:32;;;;;;;;;;;12.30;99.90;;;;;;5000946;28;20008;-73
2022/07/23 04:35:58;;;;;;;;;;;12.30;99.90;;;;;;4992341;28;19929;-73
2022/07/23 04:38:23;;;;;;;;;;;12.30;99.90;;;;;;4993113;28;19926;-74
2022/07/23 04:40:49;;;;;;;;;;;12.30;99.90;;;;;;4994370;28;19925;-73
2022/07/23 04:43:15;;;;;;;;;;;12.40;99.90;;;;;;4998716;28;20407;-73
2022/07/23 04:45:40;;;;;;;;;;;12.40;99.90;;;;;;4994006;28;19926;-73
2022/07/23 04:48:06;;;;;;;;;;;12.40;99.90;;;;;;4995348;28;19926;-73
2022/07/23 04:50:31;;;;;;;;;;;12.40;99.90;;;;;;4978850;28;19921;-73
2022/07/23 04:52:57;;;;;;;;;;;12.30;99.90;;;;;;4994499;28;19949;-73
2022/07/23 04:55:22;;;;;;;;;;;12.30;99.90;;;;;;4996980;28;19925;-73
2022/07/23 04:57:48;;;;;;;;;;;12.40;99.90;;;;;;4993618;28;19921;-73
2022/07/23 05:00:14;;;;;;;;;;;12.40;99.90;;;;;;4988791;28;19937;-73
2022/07/23 05:02:39;;;;;;;;;;;12.50;99.90;;;;;;4994130;28;19921;-73
2022/07/23 05:05:05;;;;;;;;;;;12.50;99.90;;;;;;4999668;28;19933;-73
2022/07/23 05:07:30;;;;;;;;;;;12.60;99.90;;;;;;5001976;28;19922;-73
2022/07/23 05:09:56;;;;;;;;;;;12.60;99.90;;;;;;4997689;28;19999;-73
2022/07/23 05:12:22;;;;;;;;;;;12.70;99.90;;;;;;4995293;28;19934;-73
2022/07/23 05:14:47;;;;;;;;;;;12.70;99.90;;;;;;4996418;28;19928;-74
2022/07/23 05:17:13;;;;;;;;;;;12.70;99.90;;;;;;4999284;28;19928;-74
2022/07/23 05:19:38;;;;;;;;;;;12.80;99.90;;;;;;4997968;28;19926;-74
2022/07/23 05:22:04;;;;;;;;;;;12.80;99.90;;;;;;4990162;28;20016;-74
2022/07/23 05:24:29;;;;;;;;;;;12.90;99.90;;;;;;4991970;28;20807;-74
2022/07/23 05:26:55;;;;;;;;;;;12.90;99.90;;;;;;4996750;28;20403;-74
2022/07/23 05:29:20;;;;;;;;;;;12.90;99.90;;;;;;4992854;28;19942;-74
2022/07/23 05:31:46;;;;;;;;;;;13.00;99.90;;;;;;4993468;28;19932;-74
2022/07/23 05:34:11;;;;;;;;;;;13.10;99.90;;;;;;4978399;28;19922;-74
2022/07/23 05:36:37;;;;;;;;;;;13.10;99.90;;;;;;4997809;28;19976;-74
2022/07/23 05:39:03;;;;;;;;;;;13.20;99.90;;;;;;4992854;28;19921;-74
2022/07/23 05:41:29;;;;;;;;;;;13.20;99.90;;;;;;4994779;28;19953;-74
2022/07/23 05:43:54;;;;;;;;;;;13.30;99.90;;;;;;4985736;28;20377;-74
2022/07/23 05:46:20;;;;;;;;;;;13.40;99.90;;;;;;4995749;28;19928;-74
2022/07/23 05:48:49;;;;;;;;;;;13.40;99.90;;;;;;4988048;28;19972;-74
2022/07/23 05:51:21;;;;;;;;;;;13.50;99.90;;;;;;4987508;28;19926;-74
2022/07/23 05:53:47;;;;;;;;;;;13.60;99.90;;;;;;4992095;28;20475;-74
2022/07/23 05:56:13;;;;;;;;;;;13.70;99.90;;;;;;4994023;28;19925;-74
2022/07/23 05:58:39;;;;;;;;;;;13.80;99.90;;;;;;4992040;28;19928;-74
2022/07/23 06:01:04;;;;;;;;;;;13.80;99.90;;;;;;4986573;28;19934;-74
2022/07/23 06:03:30;;;;;;;;;;;13.90;99.90;;;;;;4996315;28;19967;-74
2022/07/23 06:05:55;;;;;;;;;;;14.00;99.90;;;;;;4994219;28;19922;-74
2022/07/23 06:08:21;;;;;;;;;;;14.10;99.90;;;;;;4988528;28;19937;-74
2022/07/23 06:10:46;;;;;;;;;;;14.20;99.90;;;;;;4989551;28;19945;-74
2022/07/23 06:13:12;;;;;;;;;;;14.30;99.90;;;;;;4974427;28;20004;-74
2022/07/23 06:15:38;;;;;;;;;;;14.30;99.90;;;;;;4986284;28;19921;-74
2022/07/23 06:18:03;;;;;;;;;;;14.40;99.90;;;;;;4988038;28;20004;-74
2022/07/23 06:20:29;;;;;;;;;;;14.50;99.90;;;;;;4987432;28;19984;-74
2022/07/23 06:22:54;;;;;;;;;;;14.60;99.90;;;;;;4988609;28;20444;-74
2022/07/23 06:25:20;;;;;;;;;;;14.70;99.90;;;;;;4987549;28;20450;-74
2022/07/23 06:27:46;;;;;;;;;;;14.70;99.90;;;;;;4972028;28;20718;-77
2022/07/23 06:30:12;;;;;;;;;;;14.80;99.90;;;;;;4987261;28;19961;-76
2022/07/23 06:32:38;;;;;;;;;;;14.90;99.90;;;;;;4986217;28;19970;-77
2022/07/23 06:35:04;;;;;;;;;;;14.90;99.90;;;;;;4984441;28;20398;-76
2022/07/23 06:37:29;;;;;;;;;;;15.00;99.90;;;;;;4991095;28;20384;-76
2022/07/23 06:39:55;;;;;;;;;;;15.00;99.90;;;;;;4958761;28;20020;-76
2022/07/23 06:42:21;;;;;;;;;;;15.10;99.90;;;;;;4988211;28;20384;-76
2022/07/23 06:44:46;;;;;;;;;;;15.10;99.90;;;;;;4958740;28;20303;-76
2022/07/23 06:47:12;;;;;;;;;;;15.20;99.90;;;;;;4981453;28;19922;-76
2022/07/23 06:49:37;;;;;;;;;;;15.30;99.90;;;;;;4982246;28;20364;-76
2022/07/23 06:52:03;;;;;;;;;;;15.40;99.90;;;;;;4980623;28;19933;-76
2022/07/23 06:54:29;;;;;;;;;;;15.40;99.90;;;;;;4986675;28;20308;-76
2022/07/23 06:56:54;;;;;;;;;;;15.50;99.90;;;;;;4980723;28;20427;-77
2022/07/23 06:59:20;;;;;;;;;;;15.60;99.90;;;;;;4984563;28;19922;-76
2022/07/23 07:01:46;;;;;;;;;;;15.60;99.90;;;;;;4985307;28;20406;-76
2022/07/23 07:04:11;;;;;;;;;;;15.80;99.90;;;;;;4981408;28;20332;-76
2022/07/23 07:06:37;;;;;;;;;;;15.90;99.90;;;;;;4971995;28;20328;-76
2022/07/23 07:09:03;;;;;;;;;;;16.00;99.90;;;;;;4981244;28;19921;-76
2022/07/23 07:11:28;;;;;;;;;;;16.10;99.90;;;;;;5009292;23;20027;-76
2022/07/23 07:13:54;;;;;;;;;;;16.20;99.90;;;;;;5018967;28;20339;-76
2022/07/23 07:16:20;;;;;;;;;;;16.30;99.90;;;;;;5009064;28;19929;-76
2022/07/23 07:18:45;;;;;;;;;;;16.40;99.90;;;;;;5009679;28;19924;-76
2022/07/23 07:21:11;;;;;;;;;;;16.40;99.90;;;;;;5005784;28;19960;-77
2022/07/23 07:23:36;;;;;;;;;;;16.60;99.90;;;;;;5012688;28;19920;-76
2022/07/23 07:26:02;;;;;;;;;;;16.60;99.90;;;;;;5012640;28;19929;-76
2022/07/23 07:28:28;;;;;;;;;;;16.70;99.90;;;;;;5008975;28;19921;-76
2022/07/23 07:30:53;;;;;;;;;;;16.80;99.90;;;;;;5013490;28;20048;-76
2022/07/23 07:33:20;;;;;;;;;;;16.80;99.90;;;;;;5009032;28;19929;-76
2022/07/23 07:35:46;;;;;;;;;;;17.00;99.90;;;;;;5016219;28;19925;-76
2022/07/23 07:38:12;;;;;;;;;;;17.00;99.90;;;;;;5009335;28;19977;-76
2022/07/23 07:40:38;;;;;;;;;;;17.20;99.90;;;;;;5009830;28;19961;-78
2022/07/23 07:43:04;;;;;;;;;;;17.30;99.90;;;;;;5005934;28;19960;-78
2022/07/23 07:45:29;;;;;;;;;;;17.40;99.90;;;;;;5006562;28;19922;-78
2022/07/23 07:47:55;;;;;;;;;;;17.60;99.90;;;;;;5002816;28;19976;-78
2022/07/23 07:50:21;;;;;;;;;;;17.70;99.90;;;;;;4994953;28;19925;-76
2022/07/23 07:52:46;;;;;;;;;;;17.90;99.90;;;;;;5005798;28;20012;-78
2022/07/23 07:55:12;;;;;;;;;;;18.00;99.90;;;;;;5007888;28;20044;-78
2022/07/23 07:57:38;;;;;;;;;;;18.00;99.90;;;;;;5012287;28;19921;-78
2022/07/23 08:00:05;;;;;;;;;;;18.10;99.90;;;;;;4995662;28;19964;-77
2022/07/23 08:02:39;;;;;;;;;;;18.30;99.90;;;;;;5006004;28;19921;-77
2022/07/23 08:05:05;;;;;;;;;;;18.40;99.90;;;;;;5011173;28;19936;-73
2022/07/23 08:07:30;;;;;;;;;;;18.50;99.90;;;;;;5006957;28;19921;-73
2022/07/23 08:09:56;;;;;;;;;;;18.70;99.90;;;;;;5012697;28;19925;-73
2022/07/23 08:12:21;;;;;;;;;;;18.90;99.90;;;;;;5011087;28;20011;-73
2022/07/23 08:14:47;;;;;;;;;;;19.10;99.90;;;;;;5008769;28;19921;-73
2022/07/23 08:17:12;;;;;;;;;;;19.30;99.90;;;;;;5004321;28;20008;-73
2022/07/23 08:19:38;;;;;;;;;;;19.40;99.90;;;;;;5005250;28;20390;-73
2022/07/23 08:22:03;;;;;;;;;;;19.60;99.90;;;;;;5010372;28;19922;-73
2022/07/23 08:24:29;;;;;;;;;;;19.80;99.90;;;;;;5013794;28;19941;-73
2022/07/23 08:26:54;;;;;;;;;;;19.90;99.90;;;;;;5029638;28;20331;-73
2022/07/23 08:29:20;;;;;;;;;;;20.00;99.90;;;;;;5012709;28;20392;-73
2022/07/23 08:31:46;;;;;;;;;;;20.00;99.90;;;;;;5007072;28;20354;-73
2022/07/23 08:34:11;;;;;;;;;;;20.10;99.90;;;;;;5013753;28;19928;-73
2022/07/23 08:36:37;;;;;;;;;;;20.30;99.90;;;;;;4999041;28;19926;-73
2022/07/23 08:39:03;;;;;;;;;;;20.50;99.90;;;;;;5011730;28;20293;-73
2022/07/23 08:41:29;;;;;;;;;;;20.60;99.90;;;;;;5001331;28;20360;-73
2022/07/23 08:43:55;;;;;;;;;;;20.60;99.90;;;;;;5011076;28;19926;-73
2022/07/23 08:46:21;;;;;;;;;;;20.50;99.90;;;;;;5007900;28;19921;-73
2022/07/23 08:48:48;;;;;;;;;;;20.50;99.90;;;;;;5009269;28;19922;-73
2022/07/23 08:51:13;;;;;;;;;;;20.70;99.90;;;;;;5013783;28;20011;-73
2022/07/23 08:53:40;;;;;;;;;;;20.70;99.90;;;;;;5013150;28;20404;-73
2022/07/23 08:56:06;;;;;;;;;;;20.70;99.90;;;;;;5008416;28;20005;-73
2022/07/23 08:58:32;;;;;;;;;;;20.70;99.90;;;;;;5006021;28;19928;-73
2022/07/23 09:00:58;;;;;;;;;;;20.60;99.90;;;;;;4999766;28;19921;-73
2022/07/23 09:03:28;;;;;;;;;;;20.70;99.90;;;;;;5004326;28;19972;-73
2022/07/23 09:05:56;;;;;;;;;;;20.60;99.90;;;;;;5008041;28;20304;-73
2022/07/23 09:08:23;;;;;;;;;;;20.70;99.90;;;;;;4976292;28;19921;-73
2022/07/23 09:10:49;;;;;;;;;;;20.50;99.90;;;;;;4999524;28;19926;-73
2022/07/23 09:13:33;;;;;;;;;;;20.30;99.90;;;;;;5011421;28;20361;-73
2022/07/23 09:16:00;;;;;;;;;;;20.30;99.90;;;;;;4991621;28;19948;-73
2022/07/23 09:18:30;;;;;;;;;;;20.20;99.90;;;;;;4983796;28;19921;-73
2022/07/23 09:21:12;;;;;;;;;;;20.30;99.90;;;;;;5003194;28;20008;-73
2022/07/23 09:23:39;;;;;;;;;;;20.60;99.90;;;;;;5011019;28;19944;-73
2022/07/23 09:26:16;;;;;;;;;;;20.80;99.90;;;;;;4999850;28;20404;-73
2022/07/23 09:28:49;;;;;;;;;;;21.00;99.90;;;;;;5013300;28;19921;-73
2022/07/23 09:31:14;;;;;;;;;;;21.30;99.90;;;;;;5012562;28;19961;-73
2022/07/23 09:33:40;;;;;;;;;;;21.60;99.90;;;;;;4996546;28;19964;-73
2022/07/23 09:36:06;;;;;;;;;;;21.80;99.50;;;;;;5014477;28;19975;-73
2022/07/23 09:38:31;;;;;;;;;;;22.00;99.90;;;;;;5013376;28;19991;-73
2022/07/23 09:41:10;;;;;;;;;;;22.40;99.10;;;;;;5011434;28;20397;-73
2022/07/23 09:43:36;;;;;;;;;;;22.70;99.30;;;;;;4996230;28;20016;-73
2022/07/23 09:46:22;;;;;;;;;;;22.80;98.70;;;;;;5012790;28;20002;-73
2022/07/23 09:48:48;;;;;;;;;;;23.00;98.90;;;;;;5009287;28;19925;-73
2022/07/23 09:53:51;;;;;;;;;;;22.80;99.20;;;;;;5005902;28;20008;-73
2022/07/23 09:56:19;;;;;;;;;;;22.70;96.50;;;;;;5020838;28;20016;-73
2022/07/23 09:58:49;;;;;;;;;;;22.80;97.10;;;;;;5015703;28;20592;-73
2022/07/23 10:01:15;;;;;;;;;;;23.10;96.10;;;;;;4988618;28;19922;-73
2022/07/23 10:03:41;;;;;;;;;;;23.20;94.70;;;;;;5005071;28;20358;-73
2022/07/23 10:06:08;;;;;;;;;;;23.30;93.80;;;;;;5012180;28;20304;-73
2022/07/23 10:08:34;;;;;;;;;;;23.20;93.80;;;;;;4985731;28;19992;-73
2022/07/23 10:11:00;;;;;;;;;;;23.10;96.70;;;;;;5007378;28;19925;-73
2022/07/23 10:16:12;;;;;;;;;;;23.00;95.40;;;;;;5006829;28;22258;-72
2022/07/23 10:18:38;;;;;;;;;;;22.90;94.00;;;;;;5001261;28;19922;-73
2022/07/23 10:21:06;;;;;;;;;;;23.00;95.50;;;;;;5010459;28;20399;-73
2022/07/23 10:23:51;;;;;;;;;;;23.40;96.40;;;;;;5007333;28;19922;-73
2022/07/23 10:26:17;;;;;;;;;;;23.60;94.40;;;;;;5010766;28;19965;-73
2022/07/23 10:28:48;;;;;;;;;;;23.70;95.10;;;;;;4983587;28;20427;-73
2022/07/23 10:31:32;;;;;;;;;;;23.60;92.40;;;;;;5009825;28;19921;-73
2022/07/23 10:34:07;;;;;;;;;;;23.60;92.00;;;;;;5010586;28;19921;-73
2022/07/23 10:36:39;;;;;;;;;;;23.80;94.90;;;;;;5006403;28;19937;-72
2022/07/23 10:39:05;;;;;;;;;;;24.00;93.90;;;;;;4989354;28;20014;-73
2022/07/23 10:41:35;;;;;;;;;;;24.10;93.30;;;;;;4998614;28;20008;-72
2022/07/23 10:44:08;;;;;;;;;;;24.30;91.90;;;;;;4997980;28;19925;-72
2022/07/23 10:46:52;;;;;;;;;;;24.10;92.30;;;;;;5007828;28;19929;-72
2022/07/23 10:49:21;;;;;;;;;;;23.80;90.30;;;;;;5026219;28;19929;-72
2022/07/23 10:52:06;;;;;;;;;;;23.80;90.40;;;;;;5011825;28;19948;-72
2022/07/23 10:54:32;;;;;;;;;;;23.60;91.60;;;;;;5009629;28;20015;-72
2022/07/23 10:56:57;;;;;;;;;;;23.50;93.80;;;;;;5002808;28;19976;-72
2022/07/23 10:59:23;;;;;;;;;;;23.60;92.60;;;;;;5010107;28;20032;-72
2022/07/23 11:01:49;;;;;;;;;;;23.80;92.50;;;;;;5002489;28;20392;-73
2022/07/23 11:04:14;;;;;;;;;;;24.00;93.30;;;;;;5007552;28;19933;-73
2022/07/23 11:06:49;;;;;;;;;;;24.00;92.80;;;;;;5005075;28;20312;-72
2022/07/23 11:09:26;;;;;;;;;;;24.30;91.60;;;;;;5010490;28;19920;-77
2022/07/23 11:12:10;;;;;;;;;;;24.30;91.30;;;;;;4991097;28;19929;-77
2022/07/23 11:15:02;;;;;;;;;;;24.30;92.10;;;;;;5013411;28;19960;-78
2022/07/23 11:17:28;;;;;;;;;;;24.30;92.40;;;;;;5006743;28;19922;-78
2022/07/23 11:20:09;;;;;;;;;;;24.20;90.10;;;;;;4998660;28;19959;-77
2022/07/23 11:22:37;;;;;;;;;;;24.20;89.30;;;;;;5008691;28;19929;-77
2022/07/23 11:25:03;;;;;;;;;;;24.30;90.20;;;;;;5013429;28;19928;-77
2022/07/23 11:27:43;;;;;;;;;;;24.30;89.40;;;;;;5013897;28;19955;-77
2022/07/23 11:30:09;;;;;;;;;;;24.50;92.30;;;;;;5024957;28;19964;-77
2022/07/23 11:32:38;;;;;;;;;;;24.70;88.10;;;;;;5022018;28;19932;-78
2022/07/23 11:35:23;;;;;;;;;;;24.80;91.00;;;;;;5024330;28;19936;-77
2022/07/23 11:37:49;;;;;;;;;;;24.80;91.10;;;;;;5018391;28;20008;-78
2022/07/23 11:40:15;;;;;;;;;;;24.80;91.00;;;;;;5014535;28;20344;-77
2022/07/23 11:43:10;;;;;;;;;;;24.80;91.40;;;;;;4999780;28;19925;-78
2022/07/23 11:45:40;;;;;;;;;;;24.80;90.10;;;;;;4996545;28;20270;-78
2022/07/23 11:48:07;;;;;;;;;;;24.80;92.10;;;;;;5015727;28;19953;-78
2022/07/23 11:50:33;;;;;;;;;;;24.80;90.10;;;;;;5025861;28;20008;-77
2022/07/23 11:52:58;;;;;;;;;;;24.90;92.60;;;;;;5018265;28;19926;-78
2022/07/23 11:55:24;;;;;;;;;;;25.10;90.50;;;;;;5017383;28;19953;-78
2022/07/23 11:57:50;;;;;;;;;;;25.10;89.80;;;;;;5020056;28;19921;-78
2022/07/23 12:00:17;;;;;;;;;;;25.10;89.40;;;;;;5017516;28;21050;-78
2022/07/23 12:02:44;;;;;;;;;;;25.00;87.30;;;;;;5039340;28;19960;-78
2022/07/23 12:05:13;;;;;;;;;;;25.00;88.30;;;;;;5020787;28;19929;-77
2022/07/23 12:07:40;;;;;;;;;;;25.00;90.00;;;;;;4993914;28;19933;-77
2022/07/23 12:10:11;;;;;;;;;;;25.00;88.70;;;;;;5001945;28;19944;-78
2022/07/23 12:12:38;;;;;;;;;;;25.10;91.30;;;;;;4995427;28;20358;-78
2022/07/23 12:15:04;;;;;;;;;;;25.10;86.40;;;;;;5011909;28;19944;-78
2022/07/23 12:17:31;;;;;;;;;;;25.20;90.50;;;;;;5015495;28;20280;-78
2022/07/23 12:19:58;;;;;;;;;;;25.30;91.20;;;;;;5010957;28;19936;-78
2022/07/23 12:22:25;;;;;;;;;;;25.60;92.50;;;;;;5025047;28;19937;-78
2022/07/23 12:24:56;;;;;;;;;;;25.80;88.60;;;;;;5027975;28;19921;-78
2022/07/23 12:27:23;;;;;;;;;;;25.90;89.60;;;;;;5009591;28;20288;-78
2022/07/23 12:29:49;;;;;;;;;;;26.00;84.60;;;;;;4992723;28;19930;-78
2022/07/23 12:32:18;;;;;;;;;;;26.10;90.10;;;;;;5010709;28;19925;-78
2022/07/23 12:34:44;;;;;;;;;;;26.10;84.70;;;;;;5007758;28;20292;-78
2022/07/23 12:37:29;;;;;;;;;;;26.00;86.60;;;;;;5013108;28;19921;-78
2022/07/23 12:39:55;;;;;;;;;;;26.00;87.40;;;;;;4992156;28;19935;-78
2022/07/23 12:42:20;;;;;;;;;;;25.90;86.80;;;;;;5011861;28;19921;-71
2022/07/23 12:45:06;;;;;;;;;;;25.90;86.60;;;;;;5017276;28;20028;-73
2022/07/23 12:47:50;;;;;;;;;;;25.90;89.10;;;;;;5017292;28;19928;-73
2022/07/23 12:50:34;;;;;;;;;;;25.90;89.30;;;;;;5014524;28;19930;-73
2022/07/23 12:53:07;;;;;;;;;;;25.90;88.90;;;;;;4983823;28;20319;-73
2022/07/23 12:55:34;;;;;;;;;;;25.70;88.90;;;;;;5015077;28;19921;-73
2022/07/23 12:58:04;;;;;;;;;;;25.70;90.20;;;;;;5023389;28;19952;-75
2022/07/23 13:00:30;;;;;;;;;;;25.70;89.00;;;;;;5004554;28;19936;-76
2022/07/23 13:02:56;;;;;;;;;;;25.50;91.00;;;;;;4994902;28;19921;-75
2022/07/23 13:05:21;;;;;;;;;;;25.60;90.60;;;;;;5006414;28;19922;-75
2022/07/23 13:07:47;;;;;;;;;;;25.60;89.90;;;;;;5010028;28;19926;-75
2022/07/23 13:10:13;;;;;;;;;;;25.60;87.50;;;;;;5011988;28;19921;-75
2022/07/23 13:12:38;;;;;;;;;;;25.60;87.50;;;;;;5014791;28;19933;-76
2022/07/23 13:15:06;;;;;;;;;;;25.70;90.10;;;;;;5009542;28;19922;-75
2022/07/23 13:17:31;;;;;;;;;;;25.70;88.30;;;;;;5010377;28;19976;-76
2022/07/23 13:19:57;;;;;;;;;;;25.80;84.70;;;;;;5000398;28;19929;-76
2022/07/23 13:22:22;;;;;;;;;;;25.70;83.00;;;;;;5012985;28;19984;-76
2022/07/23 13:24:48;;;;;;;;;;;25.60;86.00;;;;;;4995679;28;20196;-76
2022/07/23 13:27:14;;;;;;;;;;;25.60;90.40;;;;;;5012207;28;19921;-76
2022/07/23 13:29:39;;;;;;;;;;;25.60;90.40;;;;;;4996699;28;19936;-74
2022/07/23 13:32:05;;;;;;;;;;;25.50;86.30;;;;;;5020309;28;19932;-74
2022/07/23 13:34:30;;;;;;;;;;;25.50;88.10;;;;;;5015935;28;19925;-75
2022/07/23 13:36:56;;;;;;;;;;;25.60;89.10;;;;;;4994360;28;20004;-74
2022/07/23 13:39:22;;;;;;;;;;;25.60;90.20;;;;;;5010130;28;19921;-76
2022/07/23 13:41:47;;;;;;;;;;;25.80;90.50;;;;;;5016309;28;19928;-76
2022/07/23 13:44:13;;;;;;;;;;;25.80;86.90;;;;;;5012672;28;19921;-76
2022/07/23 13:46:38;;;;;;;;;;;25.80;88.00;;;;;;4991241;28;19929;-76
2022/07/23 13:49:04;;;;;;;;;;;25.70;85.40;;;;;;4992849;28;20013;-75
2022/07/23 13:51:29;;;;;;;;;;;25.70;86.50;;;;;;5010176;28;19929;-75
2022/07/23 13:53:59;;;;;;;;;;;25.60;87.70;;;;;;5009382;28;19921;-75
2022/07/23 13:56:24;;;;;;;;;;;25.60;87.70;;;;;;5008602;28;19928;-75
2022/07/23 13:58:50;;;;;;;;;;;25.70;85.00;;;;;;5006351;28;19922;-75
2022/07/23 14:01:15;;;;;;;;;;;25.90;88.90;;;;;;5009817;28;19930;-75
2022/07/23 14:03:41;;;;;;;;;;;26.20;86.70;;;;;;5010119;28;19922;-75
2022/07/23 14:06:07;;;;;;;;;;;26.30;79.30;;;;;;4982276;28;21288;-77
2022/07/23 14:08:32;;;;;;;;;;;26.30;85.20;;;;;;5007303;28;19929;-77
2022/07/23 14:10:58;;;;;;;;;;;26.10;82.20;;;;;;5006350;28;19932;-76
2022/07/23 14:13:23;;;;;;;;;;;26.30;87.50;;;;;;5006215;28;19935;-76
2022/07/23 14:15:49;;;;;;;;;;;26.30;80.10;;;;;;5009252;28;19969;-76
2022/07/23 14:18:15;;;;;;;;;;;26.50;87.40;;;;;;5000994;28;19926;-76
2022/07/23 14:20:41;;;;;;;;;;;26.80;87.60;;;;;;5011120;28;19926;-76